sensor_id;sensor_type;location;lat;lon;timestamp;temperature;humidity
69800;DHT22;67217;51.008;4.644;2024-02-16T00:00:12;13.90;72.40
69800;DHT22;67217;51.008;4.644;2024-02-16T00:02:40;13.90;72.80
69800;DHT22;67217;51.008;4.644;2024-02-16T00:05:09;13.90;72.70
69800;DHT22;67217;51.008;4.644;2024-02-16T00:07:39;13.80;73.20
69800;DHT22;67217;51.008;4.644;2024-02-16T00:10:08;13.80;73.40
69800;DHT22;67217;51.008;4.644;2024-02-16T00:12:41;13.70;73.50
69800;DHT22;67217;51.008;4.644;2024-02-16T00:15:09;13.70;73.40
69800;DHT22;67217;51.008;4.644;2024-02-16T00:17:37;13.80;73.50
69800;DHT22;67217;51.008;4.644;2024-02-16T00:20:05;13.70;73.50
69800;DHT22;67217;51.008;4.644;2024-02-16T00:22:34;13.80;73.80
69800;DHT22;67217;51.008;4.644;2024-02-16T00:25:02;13.80;73.70
69800;DHT22;67217;51.008;4.644;2024-02-16T00:27:30;13.90;73.20
69800;DHT22;67217;51.008;4.644;2024-02-16T00:29:57;13.80;73.50
69800;DHT22;67217;51.008;4.644;2024-02-16T00:32:25;13.80;73.50
69800;DHT22;67217;51.008;4.644;2024-02-16T00:34:55;13.80;73.90
69800;DHT22;67217;51.008;4.644;2024-02-16T00:37:22;13.70;74.40
69800;DHT22;67217;51.008;4.644;2024-02-16T00:39:51;13.60;74.40
69800;DHT22;67217;51.008;4.644;2024-02-16T00:42:20;13.60;74.90
69800;DHT22;67217;51.008;4.644;2024-02-16T00:44:50;13.60;74.80
69800;DHT22;67217;51.008;4.644;2024-02-16T00:47:18;13.60;74.90
69800;DHT22;67217;51.008;4.644;2024-02-16T00:49:45;13.60;75.10
69800;DHT22;67217;51.008;4.644;2024-02-16T00:52:13;13.60;75.20
69800;DHT22;67217;51.008;4.644;2024-02-16T00:54:40;13.60;75.10
69800;DHT22;67217;51.008;4.644;2024-02-16T00:57:08;13.60;75.20
69800;DHT22;67217;51.008;4.644;2024-02-16T00:59:36;13.60;75.20
69800;DHT22;67217;51.008;4.644;2024-02-16T01:02:03;13.60;75.40
69800;DHT22;67217;51.008;4.644;2024-02-16T01:04:31;13.50;75.40
69800;DHT22;67217;51.008;4.644;2024-02-16T01:06:59;13.40;76.00
69800;DHT22;67217;51.008;4.644;2024-02-16T01:09:27;13.40;76.20
69800;DHT22;67217;51.008;4.644;2024-02-16T01:11:54;13.40;76.20
69800;DHT22;67217;51.008;4.644;2024-02-16T01:14:22;13.40;76.20
69800;DHT22;67217;51.008;4.644;2024-02-16T01:16:50;13.30;76.40
69800;DHT22;67217;51.008;4.644;2024-02-16T01:19:17;13.30;76.60
69800;DHT22;67217;51.008;4.644;2024-02-16T01:21:45;13.30;76.40
69800;DHT22;67217;51.008;4.644;2024-02-16T01:24:14;13.40;76.50
69800;DHT22;67217;51.008;4.644;2024-02-16T01:26:42;13.50;76.00
69800;DHT22;67217;51.008;4.644;2024-02-16T01:29:10;13.50;75.80
69800;DHT22;67217;51.008;4.644;2024-02-16T01:31:38;13.50;76.10
69800;DHT22;67217;51.008;4.644;2024-02-16T01:34:06;13.50;76.40
69800;DHT22;67217;51.008;4.644;2024-02-16T01:36:33;13.50;76.60
69800;DHT22;67217;51.008;4.644;2024-02-16T01:39:20;13.50;76.30
69800;DHT22;67217;51.008;4.644;2024-02-16T01:41:48;13.60;76.00
69800;DHT22;67217;51.008;4.644;2024-02-16T01:44:16;13.60;76.00
69800;DHT22;67217;51.008;4.644;2024-02-16T01:46:43;13.50;76.00
69800;DHT22;67217;51.008;4.644;2024-02-16T01:49:13;13.60;76.10
69800;DHT22;67217;51.008;4.644;2024-02-16T01:51:40;13.70;76.00
69800;DHT22;67217;51.008;4.644;2024-02-16T01:54:12;13.70;75.50
69800;DHT22;67217;51.008;4.644;2024-02-16T01:56:40;13.70;75.70
69800;DHT22;67217;51.008;4.644;2024-02-16T01:59:08;13.70;76.10
69800;DHT22;67217;51.008;4.644;2024-02-16T02:01:36;13.70;75.80
69800;DHT22;67217;51.008;4.644;2024-02-16T02:04:04;13.80;75.70
69800;DHT22;67217;51.008;4.644;2024-02-16T02:06:32;13.80;75.80
69800;DHT22;67217;51.008;4.644;2024-02-16T02:09:00;13.80;75.60
69800;DHT22;67217;51.008;4.644;2024-02-16T02:11:28;13.80;75.60
69800;DHT22;67217;51.008;4.644;2024-02-16T02:13:55;13.80;75.80
69800;DHT22;67217;51.008;4.644;2024-02-16T02:16:29;13.80;76.00
69800;DHT22;67217;51.008;4.644;2024-02-16T02:18:57;13.80;76.10
69800;DHT22;67217;51.008;4.644;2024-02-16T02:21:24;13.80;75.90
69800;DHT22;67217;51.008;4.644;2024-02-16T02:23:52;13.80;76.10
69800;DHT22;67217;51.008;4.644;2024-02-16T02:26:20;13.80;76.00
69800;DHT22;67217;51.008;4.644;2024-02-16T02:28:48;13.90;76.20
69800;DHT22;67217;51.008;4.644;2024-02-16T02:31:17;13.90;76.10
69800;DHT22;67217;51.008;4.644;2024-02-16T02:33:44;13.90;75.90
69800;DHT22;67217;51.008;4.644;2024-02-16T02:36:12;13.90;76.10
69800;DHT22;67217;51.008;4.644;2024-02-16T02:38:40;13.80;77.10
69800;DHT22;67217;51.008;4.644;2024-02-16T02:41:07;13.90;76.20
69800;DHT22;67217;51.008;4.644;2024-02-16T02:43:35;13.90;75.90
69800;DHT22;67217;51.008;4.644;2024-02-16T02:46:03;14.00;76.00
69800;DHT22;67217;51.008;4.644;2024-02-16T02:48:30;14.00;75.90
69800;DHT22;67217;51.008;4.644;2024-02-16T02:50:58;14.10;75.40
69800;DHT22;67217;51.008;4.644;2024-02-16T02:53:29;14.20;75.40
69800;DHT22;67217;51.008;4.644;2024-02-16T02:55:57;14.10;75.60
69800;DHT22;67217;51.008;4.644;2024-02-16T02:58:25;14.10;76.70
69800;DHT22;67217;51.008;4.644;2024-02-16T03:00:52;14.10;76.00
69800;DHT22;67217;51.008;4.644;2024-02-16T03:03:22;14.20;75.90
69800;DHT22;67217;51.008;4.644;2024-02-16T03:05:50;14.20;75.80
69800;DHT22;67217;51.008;4.644;2024-02-16T03:08:18;14.20;75.90
69800;DHT22;67217;51.008;4.644;2024-02-16T03:10:46;14.30;75.50
69800;DHT22;67217;51.008;4.644;2024-02-16T03:13:14;14.30;75.40
69800;DHT22;67217;51.008;4.644;2024-02-16T03:15:43;14.20;75.50
69800;DHT22;67217;51.008;4.644;2024-02-16T03:18:11;14.20;75.90
69800;DHT22;67217;51.008;4.644;2024-02-16T03:20:39;14.20;76.00
69800;DHT22;67217;51.008;4.644;2024-02-16T03:23:07;14.20;75.90
69800;DHT22;67217;51.008;4.644;2024-02-16T03:25:35;14.20;76.20
69800;DHT22;67217;51.008;4.644;2024-02-16T03:28:02;14.20;76.30
69800;DHT22;67217;51.008;4.644;2024-02-16T03:30:30;14.20;76.40
69800;DHT22;67217;51.008;4.644;2024-02-16T03:32:58;14.20;76.60
69800;DHT22;67217;51.008;4.644;2024-02-16T03:35:26;14.10;76.40
69800;DHT22;67217;51.008;4.644;2024-02-16T03:37:54;14.20;76.40
69800;DHT22;67217;51.008;4.644;2024-02-16T03:40:28;14.10;77.50
69800;DHT22;67217;51.008;4.644;2024-02-16T03:42:52;14.00;77.30
69800;DHT22;67217;51.008;4.644;2024-02-16T03:45:20;14.10;77.00
69800;DHT22;67217;51.008;4.644;2024-02-16T03:47:48;14.10;76.90
69800;DHT22;67217;51.008;4.644;2024-02-16T03:50:16;14.20;77.10
69800;DHT22;67217;51.008;4.644;2024-02-16T03:52:43;14.10;77.50
69800;DHT22;67217;51.008;4.644;2024-02-16T03:55:11;14.00;78.40
69800;DHT22;67217;51.008;4.644;2024-02-16T03:57:40;14.10;77.60
69800;DHT22;67217;51.008;4.644;2024-02-16T04:00:10;14.10;77.50
69800;DHT22;67217;51.008;4.644;2024-02-16T04:02:39;14.00;77.80
69800;DHT22;67217;51.008;4.644;2024-02-16T04:05:08;14.10;77.60
69800;DHT22;67217;51.008;4.644;2024-02-16T04:07:36;14.20;77.30
69800;DHT22;67217;51.008;4.644;2024-02-16T04:10:04;14.20;77.70
69800;DHT22;67217;51.008;4.644;2024-02-16T04:12:33;14.10;77.70
69800;DHT22;67217;51.008;4.644;2024-02-16T04:15:01;14.10;77.90
69800;DHT22;67217;51.008;4.644;2024-02-16T04:17:28;14.10;78.10
69800;DHT22;67217;51.008;4.644;2024-02-16T04:19:56;14.10;78.00
69800;DHT22;67217;51.008;4.644;2024-02-16T04:22:24;14.10;77.90
69800;DHT22;67217;51.008;4.644;2024-02-16T04:24:52;14.20;78.30
69800;DHT22;67217;51.008;4.644;2024-02-16T04:27:20;14.10;78.10
69800;DHT22;67217;51.008;4.644;2024-02-16T04:29:47;14.20;78.10
69800;DHT22;67217;51.008;4.644;2024-02-16T04:32:15;14.20;78.10
69800;DHT22;67217;51.008;4.644;2024-02-16T04:34:43;14.20;78.10
69800;DHT22;67217;51.008;4.644;2024-02-16T04:37:10;14.20;78.40
69800;DHT22;67217;51.008;4.644;2024-02-16T04:39:38;14.20;78.70
69800;DHT22;67217;51.008;4.644;2024-02-16T04:42:06;14.20;78.50
69800;DHT22;67217;51.008;4.644;2024-02-16T04:44:38;14.10;78.60
69800;DHT22;67217;51.008;4.644;2024-02-16T04:47:06;14.10;79.10
69800;DHT22;67217;51.008;4.644;2024-02-16T04:49:33;14.10;78.90
69800;DHT22;67217;51.008;4.644;2024-02-16T04:52:01;14.10;79.50
69800;DHT22;67217;51.008;4.644;2024-02-16T04:54:29;14.20;79.10
69800;DHT22;67217;51.008;4.644;2024-02-16T04:56:57;14.20;78.90
69800;DHT22;67217;51.008;4.644;2024-02-16T04:59:25;14.30;78.90
69800;DHT22;67217;51.008;4.644;2024-02-16T05:01:54;14.20;78.90
69800;DHT22;67217;51.008;4.644;2024-02-16T05:04:22;14.30;78.80
69800;DHT22;67217;51.008;4.644;2024-02-16T05:06:50;14.30;79.00
69800;DHT22;67217;51.008;4.644;2024-02-16T05:09:19;14.20;79.70
69800;DHT22;67217;51.008;4.644;2024-02-16T05:11:46;14.20;79.50
69800;DHT22;67217;51.008;4.644;2024-02-16T05:14:14;14.30;79.30
69800;DHT22;67217;51.008;4.644;2024-02-16T05:16:45;14.30;79.30
69800;DHT22;67217;51.008;4.644;2024-02-16T05:19:13;14.30;79.30
69800;DHT22;67217;51.008;4.644;2024-02-16T05:21:41;14.30;79.50
69800;DHT22;67217;51.008;4.644;2024-02-16T05:24:09;14.30;79.20
69800;DHT22;67217;51.008;4.644;2024-02-16T05:26:37;14.30;79.10
69800;DHT22;67217;51.008;4.644;2024-02-16T05:29:05;14.30;79.40
69800;DHT22;67217;51.008;4.644;2024-02-16T05:31:32;14.40;79.20
69800;DHT22;67217;51.008;4.644;2024-02-16T05:34:00;14.50;79.10
69800;DHT22;67217;51.008;4.644;2024-02-16T05:36:28;14.40;79.40
69800;DHT22;67217;51.008;4.644;2024-02-16T05:38:57;14.50;79.30
69800;DHT22;67217;51.008;4.644;2024-02-16T05:41:26;14.50;78.90
69800;DHT22;67217;51.008;4.644;2024-02-16T05:43:54;14.50;79.10
69800;DHT22;67217;51.008;4.644;2024-02-16T05:46:21;14.50;79.50
69800;DHT22;67217;51.008;4.644;2024-02-16T05:48:50;14.50;79.80
69800;DHT22;67217;51.008;4.644;2024-02-16T05:51:17;14.50;79.80
69800;DHT22;67217;51.008;4.644;2024-02-16T05:53:45;14.50;79.60
69800;DHT22;67217;51.008;4.644;2024-02-16T05:56:13;14.50;80.00
69800;DHT22;67217;51.008;4.644;2024-02-16T05:58:41;14.50;80.10
69800;DHT22;67217;51.008;4.644;2024-02-16T06:01:09;14.50;79.90
69800;DHT22;67217;51.008;4.644;2024-02-16T06:03:41;14.50;80.00
69800;DHT22;67217;51.008;4.644;2024-02-16T06:06:09;14.50;80.10
69800;DHT22;67217;51.008;4.644;2024-02-16T06:08:36;14.40;80.20
69800;DHT22;67217;51.008;4.644;2024-02-16T06:11:07;14.50;80.50
69800;DHT22;67217;51.008;4.644;2024-02-16T06:13:35;14.40;80.40
69800;DHT22;67217;51.008;4.644;2024-02-16T06:16:07;14.50;80.30
69800;DHT22;67217;51.008;4.644;2024-02-16T06:18:35;14.50;80.40
69800;DHT22;67217;51.008;4.644;2024-02-16T06:21:04;14.60;80.30
69800;DHT22;67217;51.008;4.644;2024-02-16T06:23:31;14.60;80.30
69800;DHT22;67217;51.008;4.644;2024-02-16T06:25:59;14.60;80.60
69800;DHT22;67217;51.008;4.644;2024-02-16T06:28:27;14.60;80.30
69800;DHT22;67217;51.008;4.644;2024-02-16T06:30:54;14.60;81.00
69800;DHT22;67217;51.008;4.644;2024-02-16T06:33:22;14.50;81.50
69800;DHT22;67217;51.008;4.644;2024-02-16T06:35:50;14.60;81.60
69800;DHT22;67217;51.008;4.644;2024-02-16T06:38:18;14.50;82.20
69800;DHT22;67217;51.008;4.644;2024-02-16T06:40:46;14.50;82.40
69800;DHT22;67217;51.008;4.644;2024-02-16T06:43:13;14.50;82.80
69800;DHT22;67217;51.008;4.644;2024-02-16T06:45:41;14.40;83.30
69800;DHT22;67217;51.008;4.644;2024-02-16T06:48:09;14.40;83.30
69800;DHT22;67217;51.008;4.644;2024-02-16T06:50:36;14.40;83.70
69800;DHT22;67217;51.008;4.644;2024-02-16T06:53:04;14.40;83.90
69800;DHT22;67217;51.008;4.644;2024-02-16T06:55:32;14.30;84.40
69800;DHT22;67217;51.008;4.644;2024-02-16T06:58:00;14.40;84.90
69800;DHT22;67217;51.008;4.644;2024-02-16T07:00:28;14.30;85.00
69800;DHT22;67217;51.008;4.644;2024-02-16T07:02:55;14.30;86.00
69800;DHT22;67217;51.008;4.644;2024-02-16T07:05:23;14.30;85.40
69800;DHT22;67217;51.008;4.644;2024-02-16T07:07:51;14.20;85.70
69800;DHT22;67217;51.008;4.644;2024-02-16T07:10:19;14.20;85.80
69800;DHT22;67217;51.008;4.644;2024-02-16T07:12:46;14.20;85.50
69800;DHT22;67217;51.008;4.644;2024-02-16T07:15:14;14.30;84.80
69800;DHT22;67217;51.008;4.644;2024-02-16T07:17:42;14.40;84.70
69800;DHT22;67217;51.008;4.644;2024-02-16T07:20:10;14.40;84.30
69800;DHT22;67217;51.008;4.644;2024-02-16T07:22:40;14.50;84.40
69800;DHT22;67217;51.008;4.644;2024-02-16T07:25:08;14.50;84.50
69800;DHT22;67217;51.008;4.644;2024-02-16T07:27:38;14.50;84.40
69800;DHT22;67217;51.008;4.644;2024-02-16T07:30:06;14.50;84.60
69800;DHT22;67217;51.008;4.644;2024-02-16T07:32:35;14.50;84.10
69800;DHT22;67217;51.008;4.644;2024-02-16T07:35:03;14.60;83.90
69800;DHT22;67217;51.008;4.644;2024-02-16T07:37:31;14.50;84.00
69800;DHT22;67217;51.008;4.644;2024-02-16T07:39:59;14.60;83.90
69800;DHT22;67217;51.008;4.644;2024-02-16T07:42:27;14.60;83.60
69800;DHT22;67217;51.008;4.644;2024-02-16T07:44:54;14.60;83.70
69800;DHT22;67217;51.008;4.644;2024-02-16T07:47:22;14.50;83.60
69800;DHT22;67217;51.008;4.644;2024-02-16T07:49:50;14.60;83.10
69800;DHT22;67217;51.008;4.644;2024-02-16T07:52:17;14.60;83.40
69800;DHT22;67217;51.008;4.644;2024-02-16T07:54:45;14.60;83.10
69800;DHT22;67217;51.008;4.644;2024-02-16T07:57:13;14.70;83.20
69800;DHT22;67217;51.008;4.644;2024-02-16T07:59:42;14.60;83.50
69800;DHT22;67217;51.008;4.644;2024-02-16T08:02:10;14.50;83.90
69800;DHT22;67217;51.008;4.644;2024-02-16T08:04:39;14.60;83.50
69800;DHT22;67217;51.008;4.644;2024-02-16T08:07:08;14.60;83.70
69800;DHT22;67217;51.008;4.644;2024-02-16T08:09:35;14.60;83.80
69800;DHT22;67217;51.008;4.644;2024-02-16T08:12:04;14.60;84.20
69800;DHT22;67217;51.008;4.644;2024-02-16T08:14:34;14.60;83.80
69800;DHT22;67217;51.008;4.644;2024-02-16T08:17:02;14.60;83.70
69800;DHT22;67217;51.008;4.644;2024-02-16T08:19:37;14.60;83.90
69800;DHT22;67217;51.008;4.644;2024-02-16T08:22:06;14.70;83.60
69800;DHT22;67217;51.008;4.644;2024-02-16T08:24:36;14.80;83.10
69800;DHT22;67217;51.008;4.644;2024-02-16T08:27:04;14.80;83.10
69800;DHT22;67217;51.008;4.644;2024-02-16T08:29:32;14.80;83.60
69800;DHT22;67217;51.008;4.644;2024-02-16T08:31:59;14.80;83.50
69800;DHT22;67217;51.008;4.644;2024-02-16T08:34:29;14.80;83.70
69800;DHT22;67217;51.008;4.644;2024-02-16T08:36:56;14.80;84.10
69800;DHT22;67217;51.008;4.644;2024-02-16T08:39:24;14.80;85.10
69800;DHT22;67217;51.008;4.644;2024-02-16T08:41:52;14.50;87.20
69800;DHT22;67217;51.008;4.644;2024-02-16T08:44:19;14.50;88.60
69800;DHT22;67217;51.008;4.644;2024-02-16T08:46:47;14.30;89.20
69800;DHT22;67217;51.008;4.644;2024-02-16T08:49:16;14.20;90.20
69800;DHT22;67217;51.008;4.644;2024-02-16T08:51:44;14.20;90.20
69800;DHT22;67217;51.008;4.644;2024-02-16T08:54:11;14.20;90.40
69800;DHT22;67217;51.008;4.644;2024-02-16T08:56:39;14.10;90.50
69800;DHT22;67217;51.008;4.644;2024-02-16T08:59:07;14.10;90.90
69800;DHT22;67217;51.008;4.644;2024-02-16T09:01:36;14.10;90.60
69800;DHT22;67217;51.008;4.644;2024-02-16T09:04:04;14.20;90.50
69800;DHT22;67217;51.008;4.644;2024-02-16T09:06:32;14.20;90.40
69800;DHT22;67217;51.008;4.644;2024-02-16T09:09:01;14.20;90.60
69800;DHT22;67217;51.008;4.644;2024-02-16T09:11:29;14.20;90.60
69800;DHT22;67217;51.008;4.644;2024-02-16T09:13:57;14.20;90.50
69800;DHT22;67217;51.008;4.644;2024-02-16T09:16:24;14.40;90.50
69800;DHT22;67217;51.008;4.644;2024-02-16T09:18:52;14.40;90.40
69800;DHT22;67217;51.008;4.644;2024-02-16T09:21:20;14.50;90.20
69800;DHT22;67217;51.008;4.644;2024-02-16T09:23:49;14.50;90.00
69800;DHT22;67217;51.008;4.644;2024-02-16T09:26:17;14.50;90.00
69800;DHT22;67217;51.008;4.644;2024-02-16T09:28:44;14.50;90.00
69800;DHT22;67217;51.008;4.644;2024-02-16T09:31:16;14.50;90.00
69800;DHT22;67217;51.008;4.644;2024-02-16T09:33:44;14.40;90.00
69800;DHT22;67217;51.008;4.644;2024-02-16T09:36:12;14.40;90.30
69800;DHT22;67217;51.008;4.644;2024-02-16T09:38:40;14.40;90.50
69800;DHT22;67217;51.008;4.644;2024-02-16T09:41:07;14.20;90.80
69800;DHT22;67217;51.008;4.644;2024-02-16T09:43:35;14.20;91.00
69800;DHT22;67217;51.008;4.644;2024-02-16T09:46:04;14.10;91.10
69800;DHT22;67217;51.008;4.644;2024-02-16T09:48:31;14.00;91.30
69800;DHT22;67217;51.008;4.644;2024-02-16T09:50:59;14.10;91.10
69800;DHT22;67217;51.008;4.644;2024-02-16T09:53:28;14.10;91.10
69800;DHT22;67217;51.008;4.644;2024-02-16T09:55:56;14.10;91.10
69800;DHT22;67217;51.008;4.644;2024-02-16T09:58:24;14.10;91.00
69800;DHT22;67217;51.008;4.644;2024-02-16T10:00:52;14.10;91.10
69800;DHT22;67217;51.008;4.644;2024-02-16T10:03:28;14.10;91.30
69800;DHT22;67217;51.008;4.644;2024-02-16T10:06:07;14.10;91.30
69800;DHT22;67217;51.008;4.644;2024-02-16T10:08:55;14.20;90.90
69800;DHT22;67217;51.008;4.644;2024-02-16T10:11:26;14.20;91.00
69800;DHT22;67217;51.008;4.644;2024-02-16T10:13:59;14.40;90.70
69800;DHT22;67217;51.008;4.644;2024-02-16T10:16:29;14.30;90.70
69800;DHT22;67217;51.008;4.644;2024-02-16T10:19:07;14.40;90.80
69800;DHT22;67217;51.008;4.644;2024-02-16T10:21:31;14.50;90.70
69800;DHT22;67217;51.008;4.644;2024-02-16T10:24:06;14.50;90.80
69800;DHT22;67217;51.008;4.644;2024-02-16T10:26:36;14.60;90.50
69800;DHT22;67217;51.008;4.644;2024-02-16T10:29:05;14.60;90.50
69800;DHT22;67217;51.008;4.644;2024-02-16T10:31:33;14.80;90.30
69800;DHT22;67217;51.008;4.644;2024-02-16T10:34:05;14.90;90.10
69800;DHT22;67217;51.008;4.644;2024-02-16T10:36:38;14.90;89.50
69800;DHT22;67217;51.008;4.644;2024-02-16T10:39:05;14.90;89.80
69800;DHT22;67217;51.008;4.644;2024-02-16T10:41:36;14.90;89.20
69800;DHT22;67217;51.008;4.644;2024-02-16T10:44:05;14.80;90.00
69800;DHT22;67217;51.008;4.644;2024-02-16T10:46:33;14.60;90.10
69800;DHT22;67217;51.008;4.644;2024-02-16T10:49:01;14.60;90.50
69800;DHT22;67217;51.008;4.644;2024-02-16T10:51:40;14.60;90.60
69800;DHT22;67217;51.008;4.644;2024-02-16T10:54:10;14.60;90.60
69800;DHT22;67217;51.008;4.644;2024-02-16T10:56:41;14.70;90.30
69800;DHT22;67217;51.008;4.644;2024-02-16T10:59:09;14.50;90.70
69800;DHT22;67217;51.008;4.644;2024-02-16T11:01:45;14.50;90.80
69800;DHT22;67217;51.008;4.644;2024-02-16T11:04:15;14.40;91.20
69800;DHT22;67217;51.008;4.644;2024-02-16T11:09:38;14.40;91.10
69800;DHT22;67217;51.008;4.644;2024-02-16T11:12:07;14.30;91.30
69800;DHT22;67217;51.008;4.644;2024-02-16T11:14:41;14.20;91.30
69800;DHT22;67217;51.008;4.644;2024-02-16T11:17:11;14.20;91.70
69800;DHT22;67217;51.008;4.644;2024-02-16T11:19:43;14.20;91.80
69800;DHT22;67217;51.008;4.644;2024-02-16T11:22:14;14.20;92.00
69800;DHT22;67217;51.008;4.644;2024-02-16T11:24:43;14.10;92.30
69800;DHT22;67217;51.008;4.644;2024-02-16T11:27:15;14.20;92.40
69800;DHT22;67217;51.008;4.644;2024-02-16T11:29:45;14.20;92.50
69800;DHT22;67217;51.008;4.644;2024-02-16T11:32:13;14.10;92.80
69800;DHT22;67217;51.008;4.644;2024-02-16T11:34:41;14.20;92.80
69800;DHT22;67217;51.008;4.644;2024-02-16T11:37:08;14.00;93.50
69800;DHT22;67217;51.008;4.644;2024-02-16T11:39:36;14.10;93.20
69800;DHT22;67217;51.008;4.644;2024-02-16T11:42:09;14.10;93.60
69800;DHT22;67217;51.008;4.644;2024-02-16T11:44:38;14.00;93.80
69800;DHT22;67217;51.008;4.644;2024-02-16T11:47:09;13.90;94.10
69800;DHT22;67217;51.008;4.644;2024-02-16T11:49:39;13.90;94.10
69800;DHT22;67217;51.008;4.644;2024-02-16T11:52:07;14.00;93.80
69800;DHT22;67217;51.008;4.644;2024-02-16T11:54:35;14.00;93.60
69800;DHT22;67217;51.008;4.644;2024-02-16T11:57:04;13.90;93.90
69800;DHT22;67217;51.008;4.644;2024-02-16T11:59:32;13.80;94.00
69800;DHT22;67217;51.008;4.644;2024-02-16T12:02:00;13.70;94.30
69800;DHT22;67217;51.008;4.644;2024-02-16T12:04:30;13.50;95.00
69800;DHT22;67217;51.008;4.644;2024-02-16T12:07:02;13.50;95.30
69800;DHT22;67217;51.008;4.644;2024-02-16T12:09:30;13.50;95.20
69800;DHT22;67217;51.008;4.644;2024-02-16T12:11:59;13.50;95.50
69800;DHT22;67217;51.008;4.644;2024-02-16T12:14:31;13.40;95.80
69800;DHT22;67217;51.008;4.644;2024-02-16T12:16:59;13.50;95.50
69800;DHT22;67217;51.008;4.644;2024-02-16T12:19:27;13.40;95.60
69800;DHT22;67217;51.008;4.644;2024-02-16T12:21:56;13.40;95.70
69800;DHT22;67217;51.008;4.644;2024-02-16T12:24:24;13.30;95.80
69800;DHT22;67217;51.008;4.644;2024-02-16T12:26:52;13.30;95.90
69800;DHT22;67217;51.008;4.644;2024-02-16T12:29:19;13.30;95.80
69800;DHT22;67217;51.008;4.644;2024-02-16T12:31:47;13.30;96.10
69800;DHT22;67217;51.008;4.644;2024-02-16T12:34:16;13.20;95.90
69800;DHT22;67217;51.008;4.644;2024-02-16T12:36:43;13.10;95.90
69800;DHT22;67217;51.008;4.644;2024-02-16T12:39:12;13.10;96.00
69800;DHT22;67217;51.008;4.644;2024-02-16T12:41:41;13.10;95.30
69800;DHT22;67217;51.008;4.644;2024-02-16T12:44:09;13.20;95.50
69800;DHT22;67217;51.008;4.644;2024-02-16T12:46:37;13.20;94.90
69800;DHT22;67217;51.008;4.644;2024-02-16T12:49:05;13.20;95.50
69800;DHT22;67217;51.008;4.644;2024-02-16T12:51:33;13.10;95.60
69800;DHT22;67217;51.008;4.644;2024-02-16T12:54:01;13.10;95.70
69800;DHT22;67217;51.008;4.644;2024-02-16T12:56:32;13.10;95.60
69800;DHT22;67217;51.008;4.644;2024-02-16T12:58:59;13.10;95.70
69800;DHT22;67217;51.008;4.644;2024-02-16T13:01:28;13.00;95.60
69800;DHT22;67217;51.008;4.644;2024-02-16T13:03:56;13.00;95.90
69800;DHT22;67217;51.008;4.644;2024-02-16T13:06:24;13.00;95.70
69800;DHT22;67217;51.008;4.644;2024-02-16T13:08:51;12.90;95.70
69800;DHT22;67217;51.008;4.644;2024-02-16T13:11:19;12.90;96.10
69800;DHT22;67217;51.008;4.644;2024-02-16T13:13:47;13.00;95.60
69800;DHT22;67217;51.008;4.644;2024-02-16T13:16:15;13.00;95.80
69800;DHT22;67217;51.008;4.644;2024-02-16T13:18:43;13.00;95.40
69800;DHT22;67217;51.008;4.644;2024-02-16T13:21:11;13.00;95.30
69800;DHT22;67217;51.008;4.644;2024-02-16T13:23:39;13.00;95.40
69800;DHT22;67217;51.008;4.644;2024-02-16T13:26:07;13.00;95.30
69800;DHT22;67217;51.008;4.644;2024-02-16T13:28:35;13.00;95.40
69800;DHT22;67217;51.008;4.644;2024-02-16T13:31:03;13.10;95.40
69800;DHT22;67217;51.008;4.644;2024-02-16T13:33:31;13.20;95.20
69800;DHT22;67217;51.008;4.644;2024-02-16T13:35:59;13.20;95.10
69800;DHT22;67217;51.008;4.644;2024-02-16T13:38:26;13.30;94.90
69800;DHT22;67217;51.008;4.644;2024-02-16T13:40:54;13.20;94.70
69800;DHT22;67217;51.008;4.644;2024-02-16T13:43:22;13.20;94.60
69800;DHT22;67217;51.008;4.644;2024-02-16T13:45:51;13.30;94.70
69800;DHT22;67217;51.008;4.644;2024-02-16T13:48:19;13.30;94.60
69800;DHT22;67217;51.008;4.644;2024-02-16T13:50:48;13.30;94.50
69800;DHT22;67217;51.008;4.644;2024-02-16T13:53:17;13.30;94.40
69800;DHT22;67217;51.008;4.644;2024-02-16T13:55:45;13.50;93.80
69800;DHT22;67217;51.008;4.644;2024-02-16T13:58:13;13.50;93.80
69800;DHT22;67217;51.008;4.644;2024-02-16T14:00:41;13.60;93.70
69800;DHT22;67217;51.008;4.644;2024-02-16T14:03:10;13.60;93.50
69800;DHT22;67217;51.008;4.644;2024-02-16T14:05:38;13.70;93.70
69800;DHT22;67217;51.008;4.644;2024-02-16T14:08:06;13.80;93.60
69800;DHT22;67217;51.008;4.644;2024-02-16T14:10:38;13.80;93.10
69800;DHT22;67217;51.008;4.644;2024-02-16T14:13:06;13.70;92.90
69800;DHT22;67217;51.008;4.644;2024-02-16T14:15:34;13.60;93.00
69800;DHT22;67217;51.008;4.644;2024-02-16T14:18:02;13.70;93.20
69800;DHT22;67217;51.008;4.644;2024-02-16T14:20:34;13.70;92.90
69800;DHT22;67217;51.008;4.644;2024-02-16T14:23:04;13.60;92.70
69800;DHT22;67217;51.008;4.644;2024-02-16T14:25:33;13.50;93.00
69800;DHT22;67217;51.008;4.644;2024-02-16T14:28:03;13.50;93.00
69800;DHT22;67217;51.008;4.644;2024-02-16T14:30:31;13.50;93.10
69800;DHT22;67217;51.008;4.644;2024-02-16T14:33:01;13.50;92.70
69800;DHT22;67217;51.008;4.644;2024-02-16T14:35:31;13.50;93.00
69800;DHT22;67217;51.008;4.644;2024-02-16T14:38:00;13.50;92.60
69800;DHT22;67217;51.008;4.644;2024-02-16T14:40:27;13.50;92.50
69800;DHT22;67217;51.008;4.644;2024-02-16T14:42:56;13.50;92.60
69800;DHT22;67217;51.008;4.644;2024-02-16T14:45:24;13.50;92.50
69800;DHT22;67217;51.008;4.644;2024-02-16T14:47:51;13.60;92.50
69800;DHT22;67217;51.008;4.644;2024-02-16T14:50:19;13.50;92.40
69800;DHT22;67217;51.008;4.644;2024-02-16T14:52:47;13.50;92.70
69800;DHT22;67217;51.008;4.644;2024-02-16T14:55:15;13.50;93.00
69800;DHT22;67217;51.008;4.644;2024-02-16T14:57:43;13.60;92.30
69800;DHT22;67217;51.008;4.644;2024-02-16T15:00:12;13.60;92.10
69800;DHT22;67217;51.008;4.644;2024-02-16T15:02:40;13.60;92.20
69800;DHT22;67217;51.008;4.644;2024-02-16T15:05:11;13.70;92.30
69800;DHT22;67217;51.008;4.644;2024-02-16T15:07:39;13.70;91.70
69800;DHT22;67217;51.008;4.644;2024-02-16T15:10:07;13.80;91.30
69800;DHT22;67217;51.008;4.644;2024-02-16T15:12:36;13.80;91.30
69800;DHT22;67217;51.008;4.644;2024-02-16T15:15:06;13.60;91.80
69800;DHT22;67217;51.008;4.644;2024-02-16T15:17:34;13.80;91.80
69800;DHT22;67217;51.008;4.644;2024-02-16T15:20:02;13.90;91.20
69800;DHT22;67217;51.008;4.644;2024-02-16T15:22:30;14.00;91.20
69800;DHT22;67217;51.008;4.644;2024-02-16T15:24:58;14.10;91.20
69800;DHT22;67217;51.008;4.644;2024-02-16T15:27:25;14.10;91.00
69800;DHT22;67217;51.008;4.644;2024-02-16T15:29:53;14.00;91.20
69800;DHT22;67217;51.008;4.644;2024-02-16T15:32:21;14.00;91.00
69800;DHT22;67217;51.008;4.644;2024-02-16T15:34:50;13.90;91.10
69800;DHT22;67217;51.008;4.644;2024-02-16T15:37:20;13.80;91.00
69800;DHT22;67217;51.008;4.644;2024-02-16T15:39:48;13.80;91.70